Time;durP1;ratioP1;P1;durP2;ratioP2;P2;SDS_P1;SDS_P2;PMS_P1;PMS_P2;Temp;Humidity;BMP_temperature;BMP_pressure;BME280_temperature;BME280_humidity;BME280_pressure;Samples;Min_cycle;Max_cycle;Signal;HPM_P1;HPM_P2
2022/11/05 00:10:01;;;;;;;25.83;10.95;;;;;;;;;;4993525;28;20133;-82
2022/11/05 00:17:57;;;;;;;21.88;10.27;;;;;;;;;;4994905;28;20599;-83
2022/11/05 00:20:23;;;;;;;24.08;10.88;;;;;;;;;;5010095;28;20130;-77
2022/11/05 00:25:51;;;;;;;23.70;10.70;;;;;;;;;;4999149;28;20050;-80
2022/11/05 00:28:17;;;;;;;22.63;10.85;;;;;;;;;;4994669;28;20054;-80
2022/11/05 00:30:44;;;;;;;26.20;10.98;;;;;;;;;;5012624;28;20101;-80
2022/11/05 00:33:10;;;;;;;29.48;11.38;;;;;;;;;;5008738;28;20050;-82
2022/11/05 00:35:37;;;;;;;21.38;9.90;;;;;;;;;;4991135;28;20054;-80
2022/11/05 00:38:03;;;;;;;24.15;9.68;;;;;;;;;;4982221;28;20110;-82
2022/11/05 00:40:30;;;;;;;27.83;9.55;;;;;;;;;;4991451;28;20373;-82
2022/11/05 00:45:41;;;;;;;22.60;8.27;;;;;;;;;;5007187;28;20047;-81
2022/11/05 00:50:53;;;;;;;19.35;8.55;;;;;;;;;;5008218;28;20456;-81
2022/11/05 00:53:20;;;;;;;20.52;9.10;;;;;;;;;;5006818;28;20054;-84
2022/11/05 00:55:46;;;;;;;17.58;8.75;;;;;;;;;;5007541;28;20110;-82
2022/11/05 00:58:17;;;;;;;22.40;9.35;;;;;;;;;;4990581;28;20050;-82
2022/11/05 01:00:44;;;;;;;23.52;8.98;;;;;;;;;;4989990;28;20060;-81
2022/11/05 01:03:12;;;;;;;18.48;8.70;;;;;;;;;;5006949;28;20102;-82
2022/11/05 01:05:41;;;;;;;17.50;9.20;;;;;;;;;;5005778;28;20061;-83
2022/11/05 01:08:08;;;;;;;21.52;8.95;;;;;;;;;;5000593;28;20062;-83
2022/11/05 01:10:42;;;;;;;19.85;9.68;;;;;;;;;;5005880;28;20155;-82
2022/11/05 01:13:08;;;;;;;22.55;9.32;;;;;;;;;;5006811;28;20081;-83
2022/11/05 01:15:38;;;;;;;19.20;9.25;;;;;;;;;;5006174;28;20066;-82
2022/11/05 01:18:05;;;;;;;19.23;9.55;;;;;;;;;;4989828;28;20047;-84
2022/11/05 01:20:31;;;;;;;29.05;10.63;;;;;;;;;;5005322;28;20043;-80
2022/11/05 01:22:58;;;;;;;21.48;9.50;;;;;;;;;;5005795;28;20134;-82
2022/11/05 01:25:24;;;;;;;25.92;10.50;;;;;;;;;;4988500;28;20057;-82
2022/11/05 01:27:51;;;;;;;21.98;9.52;;;;;;;;;;5005365;28;20046;-81
2022/11/05 01:30:17;;;;;;;21.20;9.25;;;;;;;;;;5007617;28;20054;-83
2022/11/05 01:32:44;;;;;;;22.98;10.43;;;;;;;;;;4987900;28;20077;-82
2022/11/05 01:35:11;;;;;;;25.95;10.65;;;;;;;;;;5005299;28;20073;-81
2022/11/05 01:37:38;;;;;;;24.17;11.23;;;;;;;;;;5003525;28;20143;-82
2022/11/05 01:40:06;;;;;;;21.00;9.68;;;;;;;;;;4992834;28;20142;-82
2022/11/05 01:42:33;;;;;;;18.65;10.23;;;;;;;;;;4985874;28;20073;-80
2022/11/05 01:45:01;;;;;;;24.27;10.30;;;;;;;;;;4978553;28;20051;-82
2022/11/05 01:47:34;;;;;;;17.65;9.40;;;;;;;;;;4984859;28;20047;-82
2022/11/05 01:50:03;;;;;;;23.48;10.18;;;;;;;;;;4977620;28;20061;-83
2022/11/05 01:52:33;;;;;;;26.48;10.55;;;;;;;;;;4985025;28;20130;-84
2022/11/05 01:55:00;;;;;;;20.13;9.82;;;;;;;;;;4974419;28;20126;-83
2022/11/05 01:57:27;;;;;;;21.05;9.32;;;;;;;;;;4972033;28;20051;-84
2022/11/05 01:59:55;;;;;;;25.10;9.68;;;;;;;;;;4975268;28;20228;-83
2022/11/05 02:02:23;;;;;;;20.73;9.18;;;;;;;;;;4977627;28;20055;-82
2022/11/05 02:04:52;;;;;;;23.77;9.73;;;;;;;;;;4976811;28;20055;-82
2022/11/05 02:07:19;;;;;;;17.60;9.35;;;;;;;;;;4985739;28;20119;-81
2022/11/05 02:10:00;;;;;;;21.77;9.15;;;;;;;;;;4986546;28;20051;-82
2022/11/05 02:12:27;;;;;;;21.10;9.00;;;;;;;;;;4986794;28;20060;-81
2022/11/05 02:14:57;;;;;;;24.58;9.13;;;;;;;;;;4997450;28;20054;-82
2022/11/05 02:17:33;;;;;;;22.65;9.13;;;;;;;;;;5001022;28;20157;-81
2022/11/05 02:19:59;;;;;;;22.92;9.45;;;;;;;;;;4996468;28;20066;-83
2022/11/05 02:22:44;;;;;;;19.63;8.52;;;;;;;;;;5001810;28;20046;-84
2022/11/05 02:25:14;;;;;;;20.70;9.00;;;;;;;;;;5003185;28;20288;-85
2022/11/05 02:27:59;;;;;;;24.58;9.25;;;;;;;;;;5003588;28;20638;-82
2022/11/05 02:30:37;;;;;;;20.40;9.18;;;;;;;;;;5000036;28;20058;-81
2022/11/05 02:33:13;;;;;;;22.15;9.23;;;;;;;;;;4995182;28;20062;-83
2022/11/05 02:35:39;;;;;;;;;;;;;;;;;;4990422;28;20490;-81
2022/11/05 02:38:12;;;;;;;21.48;9.23;;;;;;;;;;4991337;28;19921;-83
2022/11/05 02:40:49;;;;;;;18.25;9.45;;;;;;;;;;4991510;28;20050;-84
2022/11/05 02:43:29;;;;;;;21.42;9.30;;;;;;;;;;4995684;28;20042;-83
2022/11/05 02:46:11;;;;;;;22.33;9.95;;;;;;;;;;4998006;28;20065;-84
2022/11/05 02:48:40;;;;;;;24.02;10.15;;;;;;;;;;4999196;28;20651;-82
2022/11/05 02:51:10;;;;;;;27.42;10.27;;;;;;;;;;5001098;28;20434;-81
2022/11/05 02:53:40;;;;;;;21.00;10.05;;;;;;;;;;5004343;28;20151;-83
2022/11/05 02:56:09;;;;;;;26.23;10.52;;;;;;;;;;4999652;28;20094;-81
2022/11/05 02:58:36;;;;;;;25.17;9.88;;;;;;;;;;5004035;28;20051;-83
2022/11/05 03:01:05;;;;;;;24.52;10.38;;;;;;;;;;5005653;28;20042;-80
2022/11/05 03:03:41;;;;;;;18.77;9.65;;;;;;;;;;5004426;28;20065;-83
2022/11/05 03:06:11;;;;;;;20.35;10.40;;;;;;;;;;4999788;28;20046;-82
2022/11/05 03:08:37;;;;;;;26.20;10.32;;;;;;;;;;5003867;28;20080;-83
2022/11/05 03:11:12;;;;;;;25.67;10.05;;;;;;;;;;4999874;28;20054;-82
2022/11/05 03:13:46;;;;;;;25.75;10.85;;;;;;;;;;5006063;28;20082;-80
2022/11/05 03:16:18;;;;;;;27.17;10.65;;;;;;;;;;5005504;28;20050;-81
2022/11/05 03:19:03;;;;;;;26.83;11.10;;;;;;;;;;5006286;28;20057;-81
2022/11/05 03:21:39;;;;;;;23.85;10.63;;;;;;;;;;5005380;28;20060;-81
2022/11/05 03:24:17;;;;;;;24.95;10.48;;;;;;;;;;5005944;28;20073;-80
2022/11/05 03:26:52;;;;;;;28.92;11.80;;;;;;;;;;5006706;28;20050;-81
2022/11/05 03:29:22;;;;;;;23.58;10.88;;;;;;;;;;4988680;28;20050;-82
2022/11/05 03:31:49;;;;;;;27.77;11.20;;;;;;;;;;5009731;28;20053;-81
2022/11/05 03:34:18;;;;;;;28.00;11.75;;;;;;;;;;4990837;28;20056;-82
2022/11/05 03:36:47;;;;;;;23.63;10.48;;;;;;;;;;4988657;28;20070;-81
2022/11/05 03:39:17;;;;;;;30.50;11.02;;;;;;;;;;4990114;28;20093;-82
2022/11/05 03:41:45;;;;;;;23.25;11.70;;;;;;;;;;5006698;28;20522;-80
2022/11/05 03:44:13;;;;;;;20.95;11.40;;;;;;;;;;5006844;28;20046;-83
2022/11/05 03:46:43;;;;;;;27.15;11.68;;;;;;;;;;5005996;28;20056;-80
2022/11/05 03:49:14;;;;;;;30.67;12.40;;;;;;;;;;5010262;28;20050;-79
2022/11/05 03:51:44;;;;;;;27.38;12.40;;;;;;;;;;5012707;28;20122;-80
2022/11/05 03:54:11;;;;;;;31.08;11.50;;;;;;;;;;5005285;28;20065;-84
2022/11/05 03:56:38;;;;;;;26.02;12.10;;;;;;;;;;5006051;28;20046;-81
2022/11/05 03:59:05;;;;;;;26.00;11.60;;;;;;;;;;5006365;28;20050;-81
2022/11/05 04:01:32;;;;;;;25.20;11.23;;;;;;;;;;5005217;28;20065;-82
2022/11/05 04:03:58;;;;;;;30.38;11.85;;;;;;;;;;4996016;28;20061;-81
2022/11/05 04:14:40;;;;;;;26.83;12.20;;;;;;;;;;4997216;28;20050;-83
2022/11/05 04:17:07;;;;;;;31.27;11.88;;;;;;;;;;4979649;28;20111;-82
2022/11/05 04:25:09;;;;;;;35.10;13.13;;;;;;;;;;5008184;28;20105;-81
2022/11/05 04:27:35;;;;;;;27.33;12.20;;;;;;;;;;4990407;28;20061;-82
2022/11/05 04:30:17;;;;;;;30.20;13.35;;;;;;;;;;5003330;28;20058;-80
2022/11/05 04:32:56;;;;;;;29.65;12.73;;;;;;;;;;5004324;28;20050;-85
2022/11/05 04:35:23;;;;;;;25.65;11.82;;;;;;;;;;5003401;28;20054;-80
2022/11/05 04:37:50;;;;;;;30.88;12.35;;;;;;;;;;5007683;28;20061;-81
2022/11/05 04:40:16;;;;;;;29.02;12.45;;;;;;;;;;5007907;28;20081;-83
2022/11/05 04:42:42;;;;;;;31.83;12.82;;;;;;;;;;4991015;28;20105;-80
2022/11/05 04:45:09;;;;;;;25.27;12.15;;;;;;;;;;5009661;28;20060;-82
2022/11/05 04:47:35;;;;;;;28.50;12.00;;;;;;;;;;4996508;28;20066;-79
2022/11/05 04:50:01;;;;;;;29.55;12.23;;;;;;;;;;5001158;28;20118;-80
2022/11/05 04:52:28;;;;;;;29.33;11.93;;;;;;;;;;5000948;28;20050;-80
2022/11/05 04:54:55;;;;;;;29.25;11.98;;;;;;;;;;5001705;28;20065;-80
2022/11/05 04:57:21;;;;;;;31.35;11.85;;;;;;;;;;4983417;28;20057;-82
2022/11/05 04:59:48;;;;;;;30.20;12.07;;;;;;;;;;5004119;28;20046;-80
2022/11/05 05:02:14;;;;;;;30.60;11.57;;;;;;;;;;5003802;28;20050;-82
2022/11/05 05:04:41;;;;;;;25.23;11.98;;;;;;;;;;4986177;28;20046;-84
2022/11/05 05:07:07;;;;;;;29.33;11.85;;;;;;;;;;5001194;28;20050;-82
2022/11/05 05:09:33;;;;;;;26.05;12.13;;;;;;;;;;4986277;28;20057;-82
2022/11/05 05:12:01;;;;;;;29.27;11.93;;;;;;;;;;5008015;28;20109;-83
2022/11/05 05:14:27;;;;;;;27.40;11.38;;;;;;;;;;4988978;28;20050;-81
2022/11/05 05:16:54;;;;;;;27.40;12.07;;;;;;;;;;5005772;28;20078;-82
2022/11/05 05:19:20;;;;;;;23.83;11.68;;;;;;;;;;5005707;28;20060;-81
2022/11/05 05:21:46;;;;;;;25.42;12.00;;;;;;;;;;5004984;28;20427;-82
2022/11/05 05:24:14;;;;;;;26.88;11.20;;;;;;;;;;5004851;28;20050;-81
2022/11/05 05:26:41;;;;;;;32.20;12.32;;;;;;;;;;5004230;28;20050;-82
2022/11/05 05:29:08;;;;;;;29.65;12.43;;;;;;;;;;5004745;28;20050;-80
2022/11/05 05:31:35;;;;;;;28.20;12.30;;;;;;;;;;5003320;28;20062;-80
2022/11/05 05:34:02;;;;;;;35.95;12.60;;;;;;;;;;4999153;28;20049;-79
2022/11/05 05:36:28;;;;;;;30.30;12.68;;;;;;;;;;5011639;28;20051;-81
2022/11/05 05:38:54;;;;;;;32.08;12.32;;;;;;;;;;5009357;28;20050;-83
2022/11/05 05:41:21;;;;;;;32.58;12.77;;;;;;;;;;5008925;28;20129;-81
2022/11/05 05:43:47;;;;;;;32.53;13.15;;;;;;;;;;5005633;28;20110;-82
2022/11/05 05:46:15;;;;;;;27.65;12.23;;;;;;;;;;5006494;28;20042;-80
2022/11/05 05:48:42;;;;;;;24.48;12.95;;;;;;;;;;5005693;28;20053;-81
2022/11/05 05:51:09;;;;;;;30.27;12.45;;;;;;;;;;5002760;28;20050;-82
2022/11/05 05:53:36;;;;;;;23.10;11.85;;;;;;;;;;4984356;28;20054;-80
2022/11/05 05:56:03;;;;;;;33.83;12.55;;;;;;;;;;5003671;28;20046;-83
2022/11/05 05:58:30;;;;;;;31.17;12.85;;;;;;;;;;5004176;28;20046;-80
2022/11/05 06:01:01;;;;;;;33.45;13.45;;;;;;;;;;5010336;28;20046;-81
2022/11/05 06:03:27;;;;;;;29.08;12.55;;;;;;;;;;5007233;28;20046;-81
2022/11/05 06:05:58;;;;;;;29.02;13.05;;;;;;;;;;5010632;28;20050;-79
2022/11/05 06:08:24;;;;;;;32.50;11.82;;;;;;;;;;5009030;28;20060;-81
2022/11/05 06:10:51;;;;;;;30.63;12.50;;;;;;;;;;5003473;28;20053;-81
2022/11/05 06:13:17;;;;;;;28.05;13.35;;;;;;;;;;4996680;28;20046;-80
2022/11/05 06:15:44;;;;;;;39.42;13.20;;;;;;;;;;4993143;28;20237;-80
2022/11/05 06:18:10;;;;;;;32.17;12.63;;;;;;;;;;5001805;28;20059;-80
2022/11/05 06:20:36;;;;;;;29.73;13.20;;;;;;;;;;5005736;28;20042;-81
2022/11/05 06:23:03;;;;;;;30.48;12.38;;;;;;;;;;4980412;28;20046;-83
2022/11/05 06:25:29;;;;;;;35.50;14.00;;;;;;;;;;4990675;28;20046;-81
2022/11/05 06:27:55;;;;;;;26.95;12.52;;;;;;;;;;4974023;28;20061;-81
2022/11/05 06:30:22;;;;;;;28.25;12.55;;;;;;;;;;4995807;28;20047;-82
2022/11/05 06:32:52;;;;;;;27.20;11.80;;;;;;;;;;5000318;28;20048;-80
2022/11/05 06:35:18;;;;;;;28.08;13.13;;;;;;;;;;5003076;28;20053;-81
2022/11/05 06:37:45;;;;;;;33.20;12.50;;;;;;;;;;5005736;28;20054;-80
2022/11/05 06:40:11;;;;;;;28.98;11.60;;;;;;;;;;4986607;28;20389;-82
2022/11/05 06:42:37;;;;;;;30.17;12.73;;;;;;;;;;5003025;28;20074;-81
2022/11/05 06:45:04;;;;;;;26.05;11.20;;;;;;;;;;5003981;28;20319;-82
2022/11/05 06:47:31;;;;;;;25.52;10.98;;;;;;;;;;5000151;28;20051;-83
2022/11/05 06:49:57;;;;;;;25.27;11.35;;;;;;;;;;4996920;28;20090;-81
2022/11/05 06:52:25;;;;;;;28.35;12.30;;;;;;;;;;4999573;28;20053;-81
2022/11/05 06:54:52;;;;;;;29.17;11.00;;;;;;;;;;5000682;28;20065;-81
2022/11/05 06:57:18;;;;;;;22.63;10.77;;;;;;;;;;4996494;28;20058;-83
2022/11/05 06:59:44;;;;;;;31.83;10.75;;;;;;;;;;4990772;28;20510;-83
2022/11/05 07:02:12;;;;;;;29.85;10.82;;;;;;;;;;4994739;28;20058;-84
2022/11/05 07:04:39;;;;;;;22.98;10.57;;;;;;;;;;4995043;28;20107;-81
2022/11/05 07:07:05;;;;;;;31.50;10.75;;;;;;;;;;4993474;28;20503;-83
2022/11/05 07:09:31;;;;;;;23.73;11.18;;;;;;;;;;4986418;28;20057;-82
2022/11/05 07:11:58;;;;;;;23.27;10.35;;;;;;;;;;4978793;28;20611;-83
2022/11/05 07:14:27;;;;;;;22.83;10.02;;;;;;;;;;4986939;28;20367;-81
2022/11/05 07:16:55;;;;;;;21.63;10.60;;;;;;;;;;4987451;28;20043;-82
2022/11/05 07:19:21;;;;;;;26.80;10.18;;;;;;;;;;4989136;28;20054;-82
2022/11/05 07:21:49;;;;;;;20.35;9.82;;;;;;;;;;5015913;28;20034;-80
2022/11/05 07:24:16;;;;;;;21.00;10.48;;;;;;;;;;5001342;28;20077;-82
2022/11/05 07:26:42;;;;;;;21.80;10.18;;;;;;;;;;4987075;28;20503;-83
2022/11/05 07:29:09;;;;;;;20.85;9.20;;;;;;;;;;4987569;28;20057;-83
2022/11/05 07:31:35;;;;;;;27.33;9.77;;;;;;;;;;4988686;28;20072;-81
2022/11/05 07:34:02;;;;;;;23.27;10.57;;;;;;;;;;4981278;28;20077;-80
2022/11/05 07:36:29;;;;;;;27.65;11.20;;;;;;;;;;4985094;28;20442;-83
2022/11/05 07:38:55;;;;;;;26.45;9.95;;;;;;;;;;4989055;28;20050;-85
2022/11/05 07:41:26;;;;;;;27.98;10.35;;;;;;;;;;4991092;28;20061;-84
2022/11/05 07:43:52;;;;;;;22.13;9.77;;;;;;;;;;4991301;28;20747;-82
2022/11/05 07:46:18;;;;;;;26.77;10.00;;;;;;;;;;4987975;28;20046;-80
2022/11/05 07:48:45;;;;;;;22.27;9.43;;;;;;;;;;4989642;28;20042;-82
2022/11/05 07:51:11;;;;;;;22.65;9.98;;;;;;;;;;5008314;28;20054;-81
2022/11/05 07:53:37;;;;;;;26.65;10.57;;;;;;;;;;5008823;28;20046;-82
2022/11/05 07:56:11;;;;;;;22.13;9.60;;;;;;;;;;4996867;28;20042;-82
2022/11/05 07:58:38;;;;;;;24.63;10.18;;;;;;;;;;5008385;28;20058;-80
2022/11/05 08:01:05;;;;;;;21.77;10.32;;;;;;;;;;5004774;28;20046;-81
2022/11/05 08:03:32;;;;;;;21.67;9.23;;;;;;;;;;5008468;28;20168;-82
2022/11/05 08:06:03;;;;;;;19.52;8.43;;;;;;;;;;5008115;28;20041;-81
2022/11/05 08:08:30;;;;;;;23.40;8.68;;;;;;;;;;5009325;28;20057;-81
2022/11/05 08:11:01;;;;;;;16.65;7.82;;;;;;;;;;4991285;28;20207;-80
2022/11/05 08:13:27;;;;;;;17.60;7.60;;;;;;;;;;4987130;28;20581;-83
2022/11/05 08:15:55;;;;;;;22.55;7.40;;;;;;;;;;4986872;28;20068;-83
2022/11/05 08:18:22;;;;;;;17.08;8.75;;;;;;;;;;4995238;28;20050;-81
2022/11/05 08:20:48;;;;;;;20.67;8.40;;;;;;;;;;4995398;28;20055;-82
2022/11/05 08:23:14;;;;;;;20.25;8.90;;;;;;;;;;4998921;28;20057;-83
2022/11/05 08:25:41;;;;;;;19.52;9.18;;;;;;;;;;5013168;28;20051;-84
2022/11/05 08:28:09;;;;;;;26.45;9.35;;;;;;;;;;4987914;28;20058;-84
2022/11/05 08:30:35;;;;;;;20.27;7.65;;;;;;;;;;5003403;28;20161;-82
2022/11/05 08:33:11;;;;;;;17.25;7.53;;;;;;;;;;5001634;28;20077;-86
2022/11/05 08:35:39;;;;;;;19.08;8.65;;;;;;;;;;4993087;28;20051;-82
2022/11/05 08:38:06;;;;;;;20.60;8.43;;;;;;;;;;4993583;28;20090;-84
2022/11/05 08:40:37;;;;;;;18.50;7.85;;;;;;;;;;4996943;28;20050;-81
2022/11/05 08:43:04;;;;;;;17.65;8.90;;;;;;;;;;5001692;28;20065;-80
2022/11/05 08:45:32;;;;;;;19.25;8.00;;;;;;;;;;5001359;28;20042;-83
2022/11/05 08:47:59;;;;;;;17.48;7.88;;;;;;;;;;4989389;28;20050;-83
2022/11/05 08:50:25;;;;;;;16.50;8.32;;;;;;;;;;4994440;28;20054;-83
2022/11/05 08:52:52;;;;;;;18.13;7.72;;;;;;;;;;4991833;28;20062;-82
2022/11/05 08:55:18;;;;;;;13.23;7.05;;;;;;;;;;4992055;28;20076;-81
2022/11/05 08:57:45;;;;;;;21.63;6.82;;;;;;;;;;4991430;28;20046;-82
2022/11/05 09:00:17;;;;;;;19.35;7.57;;;;;;;;;;4993355;28;20046;-82
2022/11/05 09:02:43;;;;;;;19.83;7.93;;;;;;;;;;4997173;28;20049;-81
2022/11/05 09:05:10;;;;;;;24.92;7.85;;;;;;;;;;5003078;28;20115;-83
2022/11/05 09:07:36;;;;;;;18.67;7.95;;;;;;;;;;5012047;28;20521;-82
2022/11/05 09:10:03;;;;;;;23.95;7.10;;;;;;;;;;5006625;28;20646;-85
2022/11/05 09:12:29;;;;;;;23.40;7.20;;;;;;;;;;5011749;28;20045;-84
2022/11/05 09:14:55;;;;;;;16.15;5.60;;;;;;;;;;4995164;28;20062;-85
2022/11/05 09:17:22;;;;;;;15.93;5.70;;;;;;;;;;4978525;28;20058;-84
2022/11/05 09:19:48;;;;;;;14.30;5.07;;;;;;;;;;4990200;28;20058;-85
2022/11/05 09:22:15;;;;;;;11.27;4.88;;;;;;;;;;4989969;28;20149;-85
2022/11/05 09:24:41;;;;;;;17.40;5.07;;;;;;;;;;4974669;28;20046;-83
2022/11/05 09:27:12;;;;;;;15.52;5.05;;;;;;;;;;4980183;28;20065;-83
2022/11/05 09:29:38;;;;;;;15.02;4.95;;;;;;;;;;5000274;28;20106;-84
2022/11/05 09:32:05;;;;;;;12.30;4.63;;;;;;;;;;4992784;28;20064;-82
2022/11/05 09:34:32;;;;;;;12.23;4.88;;;;;;;;;;4990025;28;20068;-84
2022/11/05 09:36:58;;;;;;;11.35;3.67;;;;;;;;;;4992893;28;20062;-84
2022/11/05 09:39:24;;;;;;;14.23;4.63;;;;;;;;;;4983247;28;20050;-85
2022/11/05 09:41:52;;;;;;;15.18;4.68;;;;;;;;;;4993634;28;20050;-84
2022/11/05 09:44:24;;;;;;;21.77;4.18;;;;;;;;;;4991105;28;20050;-83
2022/11/05 09:46:53;;;;;;;14.70;4.10;;;;;;;;;;4985803;28;20054;-82
2022/11/05 09:49:34;;;;;;;13.43;4.80;;;;;;;;;;4994794;28;20046;-84
2022/11/05 09:52:00;;;;;;;18.05;4.28;;;;;;;;;;4980481;28;20065;-84
2022/11/05 09:54:28;;;;;;;13.88;5.47;;;;;;;;;;4999399;28;20061;-84
2022/11/05 09:56:55;;;;;;;13.35;4.90;;;;;;;;;;4997617;28;20053;-83
2022/11/05 09:59:25;;;;;;;12.57;3.75;;;;;;;;;;5008679;28;20038;-83
2022/11/05 10:01:55;;;;;;;11.18;4.47;;;;;;;;;;5009015;28;20072;-84
2022/11/05 10:04:23;;;;;;;11.57;4.38;;;;;;;;;;5003794;28;20040;-84
2022/11/05 10:06:58;;;;;;;12.70;4.40;;;;;;;;;;5016374;28;20062;-84
2022/11/05 10:09:39;;;;;;;10.35;4.45;;;;;;;;;;5012432;28;20038;-81
2022/11/05 10:12:44;;;;;;;11.65;4.80;;;;;;;;;;5008349;28;20406;-84
2022/11/05 10:15:33;;;;;;;18.02;5.60;;;;;;;;;;4942953;29;20056;-83
2022/11/05 10:18:08;;;;;;;15.75;4.95;;;;;;;;;;4936702;29;20069;-84
2022/11/05 10:20:36;;;;;;;17.30;4.78;;;;;;;;;;4978887;28;20050;-83
2022/11/05 10:23:09;;;;;;;15.85;4.88;;;;;;;;;;4993501;28;20145;-83
2022/11/05 10:25:41;;;;;;;14.80;5.22;;;;;;;;;;5001964;28;20065;-84
2022/11/05 10:28:10;;;;;;;15.30;5.28;;;;;;;;;;5002049;28;20050;-85
2022/11/05 10:30:36;;;;;;;14.07;4.93;;;;;;;;;;4995479;28;20054;-79
2022/11/05 10:33:04;;;;;;;13.15;4.40;;;;;;;;;;4993401;28;20057;-77
2022/11/05 10:35:33;;;;;;;16.10;4.30;;;;;;;;;;5003039;28;20046;-75
2022/11/05 10:38:00;;;;;;;11.95;3.85;;;;;;;;;;4998642;28;20571;-76
2022/11/05 10:40:30;;;;;;;14.93;3.78;;;;;;;;;;4984443;28;20668;-79
2022/11/05 10:43:09;;;;;;;10.05;3.10;;;;;;;;;;4990472;28;20046;-77
2022/11/05 10:45:51;;;;;;;11.30;2.83;;;;;;;;;;4973357;28;20094;-82
2022/11/05 10:48:44;;;;;;;15.50;3.28;;;;;;;;;;4991733;28;20061;-83
2022/11/05 10:51:10;;;;;;;12.68;2.80;;;;;;;;;;4999782;28;20138;-86
2022/11/05 10:53:38;;;;;;;14.43;3.17;;;;;;;;;;4996591;28;20165;-84
2022/11/05 10:56:24;;;;;;;15.60;3.10;;;;;;;;;;4999294;28;20142;-85
2022/11/05 10:58:54;;;;;;;15.23;3.08;;;;;;;;;;4996023;28;20058;-82
2022/11/05 11:01:22;;;;;;;13.05;3.20;;;;;;;;;;4996351;28;20137;-84
2022/11/05 11:03:51;;;;;;;16.45;2.75;;;;;;;;;;4990419;28;20356;-86
2022/11/05 11:06:22;;;;;;;11.80;2.72;;;;;;;;;;5004045;28;20043;-85
2022/11/05 11:08:50;;;;;;;16.20;2.88;;;;;;;;;;4992376;28;20058;-85
2022/11/05 11:11:28;;;;;;;8.30;2.13;;;;;;;;;;4999390;28;20058;-79
2022/11/05 11:14:00;;;;;;;14.18;2.80;;;;;;;;;;4997636;28;20050;-82
2022/11/05 11:16:27;;;;;;;9.75;2.60;;;;;;;;;;5003947;28;20052;-84
2022/11/05 11:18:55;;;;;;;11.93;2.75;;;;;;;;;;5000989;28;20129;-84
2022/11/05 11:21:22;;;;;;;10.95;2.92;;;;;;;;;;4987351;28;20054;-84
2022/11/05 11:23:53;;;;;;;11.40;2.80;;;;;;;;;;4986959;28;20050;-83
2022/11/05 11:26:26;;;;;;;9.93;2.70;;;;;;;;;;4994748;28;20046;-88
2022/11/05 11:29:05;;;;;;;16.55;2.65;;;;;;;;;;4994587;28;20058;-87
2022/11/05 11:31:31;;;;;;;;;;;;;;;;;;4992676;28;20114;-86
2022/11/05 11:34:03;;;;;;;9.80;1.75;;;;;;;;;;4994317;28;19965;-85
2022/11/05 11:36:34;;;;;;;9.18;1.90;;;;;;;;;;4991429;28;20789;-86
2022/11/05 11:39:04;;;;;;;8.35;1.90;;;;;;;;;;4979147;28;20522;-85
2022/11/05 11:41:37;;;;;;;13.32;2.22;;;;;;;;;;4994469;28;20052;-85
2022/11/05 11:44:14;;;;;;;10.23;2.00;;;;;;;;;;4975070;28;20137;-85
2022/11/05 11:46:40;;;;;;;13.20;1.75;;;;;;;;;;4996482;28;20050;-84
2022/11/05 11:49:27;;;;;;;12.70;1.88;;;;;;;;;;4997650;28;20142;-85
2022/11/05 11:52:05;;;;;;;11.15;1.88;;;;;;;;;;4999980;28;20054;-84
2022/11/05 11:54:39;;;;;;;9.63;1.88;;;;;;;;;;4986275;28;20055;-82
2022/11/05 11:57:21;;;;;;;11.60;1.77;;;;;;;;;;4991815;28;20054;-82
2022/11/05 11:59:47;;;;;;;7.13;1.45;;;;;;;;;;4995997;28;20058;-83
2022/11/05 12:02:45;;;;;;;7.55;1.50;;;;;;;;;;4991498;28;20065;-83
2022/11/05 12:05:33;;;;;;;12.23;1.50;;;;;;;;;;4979843;28;20142;-85
2022/11/05 12:08:20;;;;;;;15.75;2.53;;;;;;;;;;4992424;28;20065;-83
2022/11/05 12:11:23;;;;;;;11.07;1.75;;;;;;;;;;4994294;28;20047;-86
2022/11/05 12:14:16;;;;;;;10.23;1.63;;;;;;;;;;4991832;28;20046;-86
2022/11/05 12:16:54;;;;;;;16.93;2.37;;;;;;;;;;4988980;28;20131;-83
2022/11/05 12:19:28;;;;;;;7.78;1.60;;;;;;;;;;4983663;28;20663;-85
2022/11/05 12:22:03;;;;;;;13.98;1.80;;;;;;;;;;4983392;28;20057;-81
2022/11/05 12:24:29;;;;;;;11.27;2.05;;;;;;;;;;4997901;28;20137;-84
2022/11/05 12:27:14;;;;;;;6.57;1.73;;;;;;;;;;5004308;28;20069;-83
2022/11/05 12:29:53;;;;;;;15.15;2.28;;;;;;;;;;4994152;28;20057;-83
2022/11/05 12:32:26;;;;;;;10.93;2.17;;;;;;;;;;4985414;28;20106;-85
2022/11/05 12:35:11;;;;;;;12.27;1.95;;;;;;;;;;5009267;28;20057;-86
2022/11/05 12:37:41;;;;;;;9.80;1.77;;;;;;;;;;5008009;28;20086;-83
2022/11/05 12:40:25;;;;;;;11.60;1.90;;;;;;;;;;5004866;28;20420;-84
2022/11/05 12:42:51;;;;;;;12.55;1.88;;;;;;;;;;4988781;28;20061;-82
2022/11/05 12:45:21;;;;;;;11.10;1.45;;;;;;;;;;5006906;28;20070;-85
2022/11/05 12:47:59;;;;;;;7.35;1.42;;;;;;;;;;4997629;28;20050;-84
2022/11/05 12:50:29;;;;;;;12.75;2.17;;;;;;;;;;4991797;28;20050;-83
2022/11/05 12:53:04;;;;;;;8.25;1.98;;;;;;;;;;4989213;28;20054;-84
2022/11/05 12:55:35;;;;;;;19.88;2.25;;;;;;;;;;4996112;28;20060;-84
2022/11/05 12:58:09;;;;;;;8.98;1.38;;;;;;;;;;4999255;28;20054;-85
2022/11/05 13:00:36;;;;;;;9.85;1.48;;;;;;;;;;4996539;28;20062;-83
2022/11/05 13:03:29;;;;;;;8.88;1.67;;;;;;;;;;5000079;28;20086;-84
2022/11/05 13:06:08;;;;;;;10.35;1.50;;;;;;;;;;4999773;28;20076;-85
2022/11/05 13:08:51;;;;;;;;;;;;;;;;;;;;;
2022/11/05 13:11:37;;;;;;;11.40;1.52;;;;;;;;;;4996551;28;20050;-84
2022/11/05 13:14:12;;;;;;;9.23;1.48;;;;;;;;;;5005729;28;20060;-85
2022/11/05 13:16:46;;;;;;;8.60;1.80;;;;;;;;;;4992121;28;20050;-83
2022/11/05 13:19:29;;;;;;;8.68;1.65;;;;;;;;;;4996365;28;20062;-85
2022/11/05 13:21:59;;;;;;;5.53;1.33;;;;;;;;;;4993508;28;20097;-84
2022/11/05 13:24:33;;;;;;;7.93;1.35;;;;;;;;;;4983706;28;20066;-84
2022/11/05 13:27:05;;;;;;;10.38;1.50;;;;;;;;;;4995776;28;20046;-82
2022/11/05 13:29:34;;;;;;;12.05;2.00;;;;;;;;;;4995302;28;20042;-83
2022/11/05 13:32:03;;;;;;;8.25;1.40;;;;;;;;;;4997576;28;20475;-82
2022/11/05 13:34:29;;;;;;;10.30;1.70;;;;;;;;;;4994947;28;20129;-84
2022/11/05 13:40:09;;;;;;;10.82;1.45;;;;;;;;;;4997280;28;20058;-83
2022/11/05 13:42:49;;;;;;;8.48;1.23;;;;;;;;;;4984367;28;20074;-88
2022/11/05 13:45:15;;;;;;;6.55;1.35;;;;;;;;;;4974827;28;20098;-85
2022/11/05 13:47:58;;;;;;;9.45;1.70;;;;;;;;;;4993458;28;20057;-87
2022/11/05 13:50:43;;;;;;;12.10;1.40;;;;;;;;;;4997716;28;20061;-87
2022/11/05 13:53:22;;;;;;;4.90;1.20;;;;;;;;;;5000832;28;20128;-85
2022/11/05 13:55:56;;;;;;;11.25;1.30;;;;;;;;;;4984241;28;20068;-86
2022/11/05 13:58:28;;;;;;;8.85;1.27;;;;;;;;;;4991205;28;20101;-84
2022/11/05 14:01:00;;;;;;;8.32;1.30;;;;;;;;;;4998628;28;20215;-85
2022/11/05 14:03:26;;;;;;;12.55;1.70;;;;;;;;;;4995452;28;20038;-84
2022/11/05 14:05:57;;;;;;;7.30;1.23;;;;;;;;;;5000955;28;20101;-87
2022/11/05 14:08:31;;;;;;;13.70;1.73;;;;;;;;;;5010277;28;20046;-83
2022/11/05 14:11:45;;;;;;;10.38;1.52;;;;;;;;;;5000553;28;20118;-82
2022/11/05 14:14:32;;;;;;;8.82;1.25;;;;;;;;;;4997550;28;20499;-83
2022/11/05 14:17:06;;;;;;;10.40;1.48;;;;;;;;;;5000237;28;20050;-85
2022/11/05 14:19:37;;;;;;;8.52;1.38;;;;;;;;;;5002187;28;20053;-85
2022/11/05 14:22:42;;;;;;;10.70;1.55;;;;;;;;;;4998702;28;20055;-85
2022/11/05 14:25:29;;;;;;;16.95;1.70;;;;;;;;;;4915777;29;20091;-86
2022/11/05 14:27:57;;;;;;;13.35;1.75;;;;;;;;;;4900992;29;20080;-85
2022/11/05 14:30:40;;;;;;;11.80;1.85;;;;;;;;;;4963726;28;20057;-84
2022/11/05 14:33:29;;;;;;;14.23;1.90;;;;;;;;;;4996501;28;20051;-84
2022/11/05 14:36:18;;;;;;;9.15;1.83;;;;;;;;;;4989934;28;20089;-83
2022/11/05 14:38:51;;;;;;;15.57;2.08;;;;;;;;;;4989663;28;20577;-85
2022/11/05 14:41:18;;;;;;;11.38;1.90;;;;;;;;;;4996211;28;20061;-85
2022/11/05 14:44:08;;;;;;;7.72;1.88;;;;;;;;;;4997889;28;20054;-85
2022/11/05 14:46:42;;;;;;;12.25;1.88;;;;;;;;;;4997319;28;20051;-84
2022/11/05 14:49:14;;;;;;;9.25;1.48;;;;;;;;;;5006941;28;20423;-84
2022/11/05 14:51:46;;;;;;;11.27;1.52;;;;;;;;;;4988174;28;20213;-85
2022/11/05 14:54:24;;;;;;;10.73;1.95;;;;;;;;;;4995836;28;20050;-84
2022/11/05 14:56:52;;;;;;;10.85;2.20;;;;;;;;;;4995989;28;20091;-83
2022/11/05 14:59:30;;;;;;;9.35;1.48;;;;;;;;;;4991846;28;20074;-84
2022/11/05 15:02:00;;;;;;;17.33;2.10;;;;;;;;;;4988754;28;20074;-84
2022/11/05 15:04:39;;;;;;;5.65;1.50;;;;;;;;;;5000890;28;20770;-85
2022/11/05 15:07:11;;;;;;;14.70;2.72;;;;;;;;;;4995994;28;20050;-85
2022/11/05 15:09:37;;;;;;;14.88;2.03;;;;;;;;;;5010617;28;20054;-84
2022/11/05 15:12:08;;;;;;;12.55;1.90;;;;;;;;;;4993233;28;20054;-84
2022/11/05 15:14:39;;;;;;;11.10;1.85;;;;;;;;;;4998513;28;20066;-84
2022/11/05 15:17:18;;;;;;;12.10;2.00;;;;;;;;;;4994509;28;20054;-84
2022/11/05 15:19:45;;;;;;;8.00;1.90;;;;;;;;;;4983974;28;20069;-85
2022/11/05 15:22:33;;;;;;;10.48;2.17;;;;;;;;;;4990313;28;20060;-85
2022/11/05 15:25:04;;;;;;;11.35;2.53;;;;;;;;;;4998651;28;20058;-84
2022/11/05 15:27:46;;;;;;;7.70;2.38;;;;;;;;;;4989556;28;20066;-85
2022/11/05 15:30:17;;;;;;;12.75;2.67;;;;;;;;;;4991870;28;20058;-74